Eviapetrol I — SY5401 — position and weather

sailwx.info

Track history (hours):
 
Tides and Currents Weather Stations Pressure Air Temp Water Temp Dewpoint Dewpoint Depression Visibility Wind Speed Wind Dir Waves Ship Positions

Eviapetrol I

Last reported at 2017-Dec-12 11:46 UTC. Time now 2017-Dec-16 22:37 UTC.
Position N 38°02' E 023°30'.

Length 75 m; draft 4.3 m.

Type: Ship. MMSI: 240285000.

Date/timePositionNaut miles runAvg speedWind from/ knotsBaromVisibWave heightAir tempDewpointWater temp
2017-Dec-12 11:46N 38°02' E 023°30'0 0.0
2017-Dec-12 11:28N 38°02' E 023°30'0 0.0
2017-Dec-12 10:58N 38°02' E 023°30'0 1.0
2017-Dec-12 10:29N 38°02' E 023°30'0 0.2
2017-Dec-12 09:59N 38°02' E 023°30'0 0.0
2017-Dec-12 09:29N 38°02' E 023°30'0 0.1
2017-Dec-12 08:56N 38°02' E 023°30'0 0.0
2017-Dec-12 08:29N 38°02' E 023°30'0 0.1
2017-Dec-12 07:56N 38°02' E 023°30'2 4.0
2017-Dec-12 07:30N 38°01' E 023°32'4 7.6
2017-Dec-12 07:00N 37°57' E 023°34'2 4.4
2017-Dec-12 06:30N 37°56' E 023°36'1 2.1
2017-Dec-12 06:01N 37°55' E 023°35'1 1.2
2017-Dec-12 05:29N 37°55' E 023°34'0 0.0
2017-Dec-12 04:59N 37°55' E 023°34'0 0.1
2017-Dec-12 04:29N 37°55' E 023°34'0 0.1
2017-Dec-12 03:59N 37°55' E 023°34'0 0.0
2017-Dec-12 03:29N 37°55' E 023°34'0 0.0
2017-Dec-12 02:59N 37°55' E 023°34'0 0.1
2017-Dec-12 02:29N 37°55' E 023°34'0 0.0
2017-Dec-12 01:59N 37°55' E 023°34'0 0.1
2017-Dec-12 01:29N 37°55' E 023°34'0 0.0
2017-Dec-12 00:59N 37°55' E 023°34'0 0.0
2017-Dec-12 00:29N 37°55' E 023°34'0 0.0
2017-Dec-11 23:59N 37°55' E 023°34'0 0.0
2017-Dec-11 23:29N 37°55' E 023°34'0 0.0
2017-Dec-11 22:59N 37°55' E 023°34'0 0.0
2017-Dec-11 22:29N 37°55' E 023°34'0 0.0
2017-Dec-11 22:00N 37°55' E 023°34'0 0.0
2017-Dec-11 21:30N 37°55' E 023°34'0 0.0
2017-Dec-11 21:00N 37°55' E 023°34'2 4.1
2017-Dec-11 20:30N 37°54' E 023°36'4 8.9
2017-Dec-11 20:00N 37°50' E 023°39'5 9.0
2017-Dec-11 19:30N 37°46' E 023°42'4 8.9
2017-Dec-11 19:00N 37°42' E 023°44'5 8.7
2017-Dec-11 18:29N 37°39' E 023°49'4 8.8
2017-Dec-11 18:00N 37°38' E 023°54'4 8.7
2017-Dec-11 17:31N 37°37' E 023°59'4 8.5
2017-Dec-11 17:00N 37°37' E 024°05'4 8.3
2017-Dec-11 16:30N 37°39' E 024°09'4 8.6
2017-Dec-11 16:00N 37°42' E 024°13'4 8.1
2017-Dec-11 15:31N 37°44' E 024°17'11 8.5
2017-Dec-11 14:16N 37°51' E 024°28'2 8.1
2017-Dec-11 14:00N 37°53' E 024°30'  
2017-Dec-09 06:41N 40°50' E 025°54'2 0.1
2017-Dec-08 07:32N 40°49' E 025°53'2 8.1
2017-Dec-08 07:19N 40°48' E 025°51'3 9.3
2017-Dec-08 07:00N 40°46' E 025°48'5 9.0
2017-Dec-08 06:30N 40°43' E 025°44'8 8.9
2017-Dec-08 05:35N 40°37' E 025°36'3 9.1
2017-Dec-08 05:16N 40°35' E 025°33'3 8.9
2017-Dec-08 04:53N 40°33' E 025°30'3 8.8
2017-Dec-08 04:29N 40°31' E 025°26'12 9.0
2017-Dec-08 03:07N 40°20' E 025°17'1 9.2
2017-Dec-08 03:00N 40°19' E 025°17'5 9.6
2017-Dec-08 02:30N 40°15' E 025°13'510.1
2017-Dec-08 02:00N 40°11' E 025°10'5 9.7
2017-Dec-08 01:29N 40°07' E 025°06'5 9.4
2017-Dec-08 01:00N 40°03' E 025°03'5 9.5
2017-Dec-08 00:29N 39°59' E 024°60'126 9.0
2017-Dec-07 10:25N 37°55' E 024°33'22 8.6
2017-Dec-07 07:54N 37°40' E 024°12'4 8.3
2017-Dec-07 07:23N 37°38' E 024°08'4 8.6
2017-Dec-07 06:58N 37°37' E 024°03'5 9.1
2017-Dec-07 06:23N 37°37' E 023°57'6 9.2
2017-Dec-07 05:41N 37°38' E 023°49'2 9.0
2017-Dec-07 05:30N 37°38' E 023°47'4 8.7
2017-Dec-07 05:00N 37°40' E 023°42'5 9.1
2017-Dec-07 04:30N 37°44' E 023°40'5 9.1
2017-Dec-07 04:00N 37°49' E 023°37'4 8.6
2017-Dec-07 03:30N 37°49' E 023°32'5 9.1
2017-Dec-07 03:00N 37°51' E 023°26'4 8.5
2017-Dec-07 02:30N 37°53' E 023°22'4 8.9
2017-Dec-07 02:00N 37°57' E 023°25'3 5.3
2017-Dec-07 01:30N 37°60' E 023°26'4 7.9
2017-Dec-07 01:00N 38°01' E 023°31'3 6.7
2017-Dec-07 00:31N 38°01' E 023°35'1 1.4
2017-Dec-06 23:59N 38°02' E 023°36'0 0.0
2017-Dec-06 23:29N 38°02' E 023°36'0 0.0
2017-Dec-06 22:59N 38°02' E 023°36'0 0.0
2017-Dec-06 22:29N 38°02' E 023°36'0 0.0
2017-Dec-06 21:59N 38°02' E 023°36'0 0.0
2017-Dec-06 21:29N 38°02' E 023°36'0 0.0
2017-Dec-06 20:59N 38°02' E 023°36'  
Track history (hours):
 
Tides and Currents Weather Stations Pressure Air Temp Water Temp Dewpoint Dewpoint Depression Visibility Wind Speed Wind Dir Waves Ship Positions

Eviapetrol I

Last reported at 2017-Dec-12 11:46 UTC. Time now 2017-Dec-16 22:37 UTC.
Position N 38°02' E 023°30'.

Length 75 m; draft 4.3 m.

Type: Ship. MMSI: 240285000.

Date/timePositionNaut miles runAvg speedWind from/ knotsBaromVisibWave heightAir tempDewpointWater temp
2017-Dec-12 11:46N 38°02' E 023°30'0 0.0
2017-Dec-12 11:28N 38°02' E 023°30'0 0.0
2017-Dec-12 10:58N 38°02' E 023°30'0 1.0
2017-Dec-12 10:29N 38°02' E 023°30'0 0.2
2017-Dec-12 09:59N 38°02' E 023°30'0 0.0
2017-Dec-12 09:29N 38°02' E 023°30'0 0.1
2017-Dec-12 08:56N 38°02' E 023°30'0 0.0
2017-Dec-12 08:29N 38°02' E 023°30'0 0.1
2017-Dec-12 07:56N 38°02' E 023°30'2 4.0
2017-Dec-12 07:30N 38°01' E 023°32'4 7.6
2017-Dec-12 07:00N 37°57' E 023°34'2 4.4
2017-Dec-12 06:30N 37°56' E 023°36'1 2.1
2017-Dec-12 06:01N 37°55' E 023°35'1 1.2
2017-Dec-12 05:29N 37°55' E 023°34'0 0.0
2017-Dec-12 04:59N 37°55' E 023°34'0 0.1
2017-Dec-12 04:29N 37°55' E 023°34'0 0.1
2017-Dec-12 03:59N 37°55' E 023°34'0 0.0
2017-Dec-12 03:29N 37°55' E 023°34'0 0.0
2017-Dec-12 02:59N 37°55' E 023°34'0 0.1
2017-Dec-12 02:29N 37°55' E 023°34'0 0.0
2017-Dec-12 01:59N 37°55' E 023°34'0 0.1
2017-Dec-12 01:29N 37°55' E 023°34'0 0.0
2017-Dec-12 00:59N 37°55' E 023°34'0 0.0
2017-Dec-12 00:29N 37°55' E 023°34'0 0.0
2017-Dec-11 23:59N 37°55' E 023°34'0 0.0
2017-Dec-11 23:29N 37°55' E 023°34'0 0.0
2017-Dec-11 22:59N 37°55' E 023°34'0 0.0
2017-Dec-11 22:29N 37°55' E 023°34'0 0.0
2017-Dec-11 22:00N 37°55' E 023°34'0 0.0
2017-Dec-11 21:30N 37°55' E 023°34'0 0.0
2017-Dec-11 21:00N 37°55' E 023°34'2 4.1
2017-Dec-11 20:30N 37°54' E 023°36'4 8.9
2017-Dec-11 20:00N 37°50' E 023°39'5 9.0
2017-Dec-11 19:30N 37°46' E 023°42'4 8.9
2017-Dec-11 19:00N 37°42' E 023°44'5 8.7
2017-Dec-11 18:29N 37°39' E 023°49'4 8.8
2017-Dec-11 18:00N 37°38' E 023°54'4 8.7
2017-Dec-11 17:31N 37°37' E 023°59'4 8.5
2017-Dec-11 17:00N 37°37' E 024°05'4 8.3
2017-Dec-11 16:30N 37°39' E 024°09'4 8.6
2017-Dec-11 16:00N 37°42' E 024°13'4 8.1
2017-Dec-11 15:31N 37°44' E 024°17'11 8.5
2017-Dec-11 14:16N 37°51' E 024°28'2 8.1
2017-Dec-11 14:00N 37°53' E 024°30'  
2017-Dec-09 06:41N 40°50' E 025°54'2 0.1
2017-Dec-08 07:32N 40°49' E 025°53'2 8.1
2017-Dec-08 07:19N 40°48' E 025°51'3 9.3
2017-Dec-08 07:00N 40°46' E 025°48'5 9.0
2017-Dec-08 06:30N 40°43' E 025°44'8 8.9
2017-Dec-08 05:35N 40°37' E 025°36'3 9.1
2017-Dec-08 05:16N 40°35' E 025°33'3 8.9
2017-Dec-08 04:53N 40°33' E 025°30'3 8.8
2017-Dec-08 04:29N 40°31' E 025°26'12 9.0
2017-Dec-08 03:07N 40°20' E 025°17'1 9.2
2017-Dec-08 03:00N 40°19' E 025°17'5 9.6
2017-Dec-08 02:30N 40°15' E 025°13'510.1
2017-Dec-08 02:00N 40°11' E 025°10'5 9.7
2017-Dec-08 01:29N 40°07' E 025°06'5 9.4
2017-Dec-08 01:00N 40°03' E 025°03'5 9.5
2017-Dec-08 00:29N 39°59' E 024°60'126 9.0
2017-Dec-07 10:25N 37°55' E 024°33'22 8.6
2017-Dec-07 07:54N 37°40' E 024°12'4 8.3
2017-Dec-07 07:23N 37°38' E 024°08'4 8.6
2017-Dec-07 06:58N 37°37' E 024°03'5 9.1
2017-Dec-07 06:23N 37°37' E 023°57'6 9.2
2017-Dec-07 05:41N 37°38' E 023°49'2 9.0
2017-Dec-07 05:30N 37°38' E 023°47'4 8.7
2017-Dec-07 05:00N 37°40' E 023°42'5 9.1
2017-Dec-07 04:30N 37°44' E 023°40'5 9.1
2017-Dec-07 04:00N 37°49' E 023°37'4 8.6
2017-Dec-07 03:30N 37°49' E 023°32'5 9.1
2017-Dec-07 03:00N 37°51' E 023°26'4 8.5
2017-Dec-07 02:30N 37°53' E 023°22'4 8.9
2017-Dec-07 02:00N 37°57' E 023°25'3 5.3
2017-Dec-07 01:30N 37°60' E 023°26'4 7.9
2017-Dec-07 01:00N 38°01' E 023°31'3 6.7
2017-Dec-07 00:31N 38°01' E 023°35'1 1.4
2017-Dec-06 23:59N 38°02' E 023°36'0 0.0
2017-Dec-06 23:29N 38°02' E 023°36'0 0.0
2017-Dec-06 22:59N 38°02' E 023°36'0 0.0
2017-Dec-06 22:29N 38°02' E 023°36'0 0.0
2017-Dec-06 21:59N 38°02' E 023°36'0 0.0
2017-Dec-06 21:29N 38°02' E 023°36'0 0.0
2017-Dec-06 20:59N 38°02' E 023°36'  

Dump ship's entire track history